createdAt,value
2022-11-26T00:02:24.099Z,9.35
2022-11-26T00:04:53.620Z,9.52
2022-11-26T00:07:26.473Z,8.80
2022-11-26T00:09:56.342Z,9.48
2022-11-26T00:12:31.069Z,9.38
2022-11-26T00:15:32.293Z,8.52
2022-11-26T00:18:00.220Z,8.75
2022-11-26T00:20:31.670Z,8.90
2022-11-26T00:23:03.236Z,8.75
2022-11-26T00:26:02.002Z,8.98
2022-11-26T00:28:35.576Z,8.35
2022-11-26T00:31:12.335Z,8.93
2022-11-26T00:33:40.154Z,9.07
2022-11-26T00:36:15.075Z,8.55
2022-11-26T00:38:43.455Z,9.05
2022-11-26T00:41:20.535Z,9.00
2022-11-26T00:43:49.342Z,9.82
2022-11-26T00:46:21.736Z,9.18
2022-11-26T00:48:50.075Z,9.70
2022-11-26T00:51:21.663Z,9.07
2022-11-26T00:53:51.040Z,9.43
2022-11-26T00:56:21.824Z,8.48
2022-11-26T00:58:50.180Z,8.85
2022-11-26T01:01:21.050Z,8.90
2022-11-26T01:03:49.119Z,8.70
2022-11-26T01:06:38.438Z,8.38
2022-11-26T01:09:07.208Z,8.68
2022-11-26T01:11:35.136Z,8.88
2022-11-26T01:14:02.991Z,8.32
2022-11-26T01:16:36.228Z,8.57
2022-11-26T01:19:04.343Z,7.80
2022-11-26T01:21:33.474Z,7.82
2022-11-26T01:24:01.302Z,8.13
2022-11-26T01:26:35.000Z,7.93
2022-11-26T01:29:02.850Z,7.82
2022-11-26T01:31:31.468Z,8.88
2022-11-26T01:33:59.609Z,8.68
2022-11-26T01:36:32.055Z,8.30
2022-11-26T01:39:04.365Z,8.48
2022-11-26T01:41:59.708Z,8.38
2022-11-26T01:44:31.730Z,7.28
2022-11-26T01:47:00.707Z,7.57
2022-11-26T01:49:35.496Z,8.23
2022-11-26T01:52:19.855Z,7.85
2022-11-26T01:54:48.794Z,9.05
2022-11-26T01:57:20.743Z,8.43
2022-11-26T01:59:54.524Z,8.63
2022-11-26T02:02:25.152Z,8.02
2022-11-26T02:05:23.943Z,7.95
2022-11-26T02:07:53.091Z,7.38
2022-11-26T02:10:21.073Z,7.40
2022-11-26T02:12:49.827Z,7.07
2022-11-26T02:15:17.997Z,7.20
2022-11-26T02:17:55.827Z,7.15
2022-11-26T02:20:23.789Z,7.22
2022-11-26T02:23:13.473Z,7.00
2022-11-26T02:26:24.315Z,8.15
2022-11-26T02:29:21.460Z,8.20
2022-11-26T02:31:55.797Z,7.85
2022-11-26T02:34:26.556Z,7.95
2022-11-26T02:37:02.159Z,8.85
2022-11-26T02:39:31.605Z,8.02
2022-11-26T02:42:02.378Z,8.00
2022-11-26T02:44:36.892Z,8.13
2022-11-26T02:47:11.386Z,8.07
2022-11-26T02:49:42.318Z,7.95
2022-11-26T02:52:11.700Z,8.15
2022-11-26T02:54:42.457Z,8.43
2022-11-26T02:57:14.695Z,8.98
2022-11-26T02:59:43.246Z,8.50
2022-11-26T03:02:38.559Z,8.52
2022-11-26T03:05:08.124Z,7.90
2022-11-26T03:07:36.550Z,8.52
2022-11-26T03:10:05.523Z,8.40
2022-11-26T03:12:33.369Z,9.52
2022-11-26T03:15:01.168Z,9.45
2022-11-26T03:17:29.039Z,9.48
2022-11-26T03:19:56.837Z,9.52
2022-11-26T03:22:24.956Z,8.98
2022-11-26T03:24:52.813Z,8.95
2022-11-26T03:27:20.639Z,8.13
2022-11-26T03:29:48.438Z,10.23
2022-11-26T03:32:16.260Z,9.68
2022-11-26T03:34:44.199Z,9.77
2022-11-26T03:37:12.007Z,11.00
2022-11-26T03:39:39.942Z,10.23
2022-11-26T03:42:07.708Z,10.27
2022-11-26T03:44:36.063Z,10.98
2022-11-26T03:47:04.222Z,9.30
2022-11-26T03:49:32.141Z,10.60
2022-11-26T03:51:59.954Z,11.02
2022-11-26T03:54:27.847Z,10.18
2022-11-26T03:56:55.639Z,10.38
2022-11-26T03:59:23.587Z,10.63
2022-11-26T04:01:51.403Z,9.48
2022-11-26T04:04:19.313Z,10.68
2022-11-26T04:06:47.324Z,9.90
2022-11-26T04:09:15.124Z,9.57
2022-11-26T04:11:42.962Z,9.98
2022-11-26T04:14:10.849Z,9.68
2022-11-26T04:16:38.731Z,8.95
2022-11-26T04:19:06.745Z,8.88
2022-11-26T04:21:34.642Z,8.48
2022-11-26T04:24:02.617Z,9.25
2022-11-26T04:26:30.502Z,9.52
2022-11-26T04:28:58.332Z,9.00
2022-11-26T04:31:26.344Z,9.20
2022-11-26T04:33:54.226Z,9.00
2022-11-26T04:36:22.143Z,9.30
2022-11-26T04:38:49.858Z,8.98
2022-11-26T04:41:17.696Z,8.25
2022-11-26T04:43:45.493Z,9.23
2022-11-26T04:46:13.542Z,8.30
2022-11-26T04:48:41.462Z,7.65
2022-11-26T04:51:09.494Z,8.52
2022-11-26T04:53:37.402Z,9.05
2022-11-26T04:56:05.359Z,8.23
2022-11-26T04:58:33.202Z,8.27
2022-11-26T05:01:01.035Z,7.57
2022-11-26T05:03:29.012Z,8.27
2022-11-26T05:05:56.889Z,8.77
2022-11-26T05:08:24.700Z,8.07
2022-11-26T05:10:58.378Z,9.23
2022-11-26T05:13:26.279Z,7.90
2022-11-26T05:15:54.338Z,7.22
2022-11-26T05:18:22.201Z,9.13
2022-11-26T05:20:50.019Z,8.43
2022-11-26T05:23:17.891Z,8.98
2022-11-26T05:25:45.702Z,9.50
2022-11-26T05:28:13.962Z,9.07
2022-11-26T05:30:41.801Z,8.85
2022-11-26T05:33:09.594Z,8.73
2022-11-26T05:35:39.021Z,8.57
2022-11-26T05:38:06.832Z,8.98
2022-11-26T05:40:34.669Z,9.32
2022-11-26T05:43:02.477Z,10.00
2022-11-26T05:45:30.225Z,8.80
2022-11-26T05:47:58.030Z,8.82
2022-11-26T05:50:25.928Z,9.10
2022-11-26T05:52:54.431Z,9.60
2022-11-26T05:55:22.312Z,9.75
2022-11-26T05:57:50.207Z,10.45
2022-11-26T06:00:18.597Z,9.98
2022-11-26T06:02:46.512Z,10.88
2022-11-26T06:05:14.629Z,10.15
2022-11-26T06:07:44.939Z,10.98
2022-11-26T06:10:13.754Z,11.10
2022-11-26T06:12:41.710Z,11.88
2022-11-26T06:15:09.880Z,11.95
2022-11-26T06:17:37.772Z,12.23
2022-11-26T06:20:06.229Z,11.70
2022-11-26T06:22:38.907Z,13.20
2022-11-26T06:25:09.233Z,11.88
2022-11-26T06:27:37.611Z,12.65
2022-11-26T06:30:07.425Z,12.85
2022-11-26T06:32:35.188Z,12.88
2022-11-26T06:35:03.051Z,12.20
2022-11-26T06:37:31.714Z,12.38
2022-11-26T06:39:59.628Z,11.75
2022-11-26T06:42:27.647Z,12.90
2022-11-26T06:44:59.652Z,12.00
2022-11-26T06:47:28.383Z,12.07
2022-11-26T06:49:56.250Z,12.65
2022-11-26T06:52:24.070Z,12.07
2022-11-26T06:54:51.825Z,12.57
2022-11-26T06:57:19.626Z,12.13
2022-11-26T06:59:47.506Z,14.55
2022-11-26T07:02:15.322Z,12.27
2022-11-26T07:04:43.125Z,11.77
2022-11-26T07:07:11.614Z,11.57
2022-11-26T07:09:40.470Z,11.90
2022-11-26T07:12:08.703Z,12.55
2022-11-26T07:14:36.637Z,11.15
2022-11-26T07:17:04.771Z,12.02
2022-11-26T07:19:32.584Z,12.63
2022-11-26T07:22:00.299Z,11.90
2022-11-26T07:24:28.182Z,11.82
2022-11-26T07:26:56.284Z,12.90
2022-11-26T07:29:24.203Z,12.02
2022-11-26T07:31:52.023Z,13.13
2022-11-26T07:34:19.780Z,11.90
2022-11-26T07:36:47.617Z,13.00
2022-11-26T07:39:15.413Z,13.38
2022-11-26T07:41:43.250Z,12.40
2022-11-26T07:44:15.035Z,12.93
2022-11-26T07:46:42.887Z,13.18
2022-11-26T07:49:10.829Z,11.48
2022-11-26T07:51:39.721Z,12.25
2022-11-26T07:54:08.428Z,11.55
2022-11-26T07:56:36.415Z,11.88
2022-11-26T07:59:04.513Z,12.07
2022-11-26T08:01:32.934Z,11.75
2022-11-26T08:04:03.921Z,12.52
2022-11-26T08:06:32.374Z,12.07
2022-11-26T08:09:02.319Z,12.98
2022-11-26T08:11:32.506Z,11.88
2022-11-26T08:14:09.326Z,12.00
2022-11-26T08:16:37.340Z,12.50
2022-11-26T08:19:11.519Z,11.43
2022-11-26T08:21:39.825Z,12.00
2022-11-26T08:24:12.299Z,11.82
2022-11-26T08:26:44.226Z,12.95
2022-11-26T08:29:13.516Z,12.25
2022-11-26T08:31:45.548Z,12.07
2022-11-26T08:34:15.525Z,12.73
2022-11-26T08:36:45.362Z,11.75
2022-11-26T08:39:15.531Z,11.63
2022-11-26T08:41:50.299Z,12.63
2022-11-26T08:44:20.883Z,11.63
2022-11-26T08:46:49.378Z,11.88
2022-11-26T08:49:17.793Z,12.98
2022-11-26T08:51:46.342Z,12.13
2022-11-26T08:54:14.893Z,14.07
2022-11-26T08:56:43.309Z,12.23
2022-11-26T08:59:11.881Z,13.32
2022-11-26T09:01:40.658Z,13.52
2022-11-26T09:04:09.139Z,11.85
2022-11-26T09:06:37.633Z,13.07
2022-11-26T09:09:17.649Z,10.68
2022-11-26T09:11:57.743Z,11.70
2022-11-26T09:14:28.141Z,12.23
2022-11-26T09:16:57.745Z,11.07
2022-11-26T09:19:26.844Z,10.57
2022-11-26T09:21:55.189Z,8.98
2022-11-26T09:24:23.447Z,9.38
2022-11-26T09:26:51.417Z,9.18
2022-11-26T09:29:22.359Z,9.10
2022-11-26T09:32:21.414Z,9.80
2022-11-26T09:34:39.098Z,8.43
2022-11-26T09:37:07.350Z,9.43
2022-11-26T09:39:35.216Z,9.10
2022-11-26T09:42:33.737Z,9.65
2022-11-26T09:45:10.987Z,8.65
2022-11-26T09:47:42.626Z,8.25
2022-11-26T09:50:16.350Z,8.80
2022-11-26T09:53:14.376Z,9.30
2022-11-26T09:55:47.102Z,8.25
2022-11-26T09:58:37.126Z,9.68
2022-11-26T10:01:06.525Z,9.25
2022-11-26T10:03:37.409Z,9.23
2022-11-26T10:06:34.619Z,8.23
2022-11-26T10:09:21.159Z,8.32
2022-11-26T10:12:25.092Z,8.65
2022-11-26T10:15:05.972Z,7.10
2022-11-26T10:18:11.555Z,7.53
2022-11-26T10:20:53.793Z,7.68
2022-11-26T10:23:35.864Z,7.63
2022-11-26T10:26:40.735Z,7.18
2022-11-26T10:29:24.633Z,7.60
2022-11-26T10:32:11.149Z,7.20
2022-11-26T10:34:45.759Z,6.28
2022-11-26T10:37:14.299Z,7.05
2022-11-26T10:39:42.093Z,6.25
2022-11-26T10:42:21.625Z,7.45
2022-11-26T10:44:51.331Z,6.30
2022-11-26T10:47:28.718Z,6.85
2022-11-26T10:50:45.413Z,7.20
2022-11-26T10:53:06.847Z,7.00
2022-11-26T10:55:43.729Z,6.22
2022-11-26T10:58:18.977Z,6.75
2022-11-26T11:00:56.411Z,6.40
2022-11-26T11:06:45.436Z,7.05
2022-11-26T11:09:35.122Z,7.38
2022-11-26T11:12:11.690Z,7.50
2022-11-26T11:14:43.065Z,8.15
2022-11-26T11:17:31.500Z,7.85
2022-11-26T11:20:27.341Z,7.50
2022-11-26T11:23:04.352Z,7.53
2022-11-26T11:25:39.031Z,8.30
2022-11-26T11:28:20.443Z,7.75
2022-11-26T11:31:04.206Z,7.65
2022-11-26T11:33:33.047Z,8.23
2022-11-26T11:36:01.331Z,7.95
2022-11-26T11:38:32.858Z,7.28
2022-11-26T11:41:04.554Z,7.63
2022-11-26T11:43:39.692Z,8.52
2022-11-26T11:46:32.705Z,7.97
2022-11-26T11:49:26.161Z,7.28
2022-11-26T11:52:16.001Z,8.38
2022-11-26T11:54:57.426Z,7.20
2022-11-26T11:57:36.196Z,7.60
2022-11-26T12:00:14.623Z,7.13
2022-11-26T12:02:51.133Z,7.28
2022-11-26T12:05:22.093Z,7.68
2022-11-26T12:08:23.047Z,6.55
2022-11-26T12:11:19.037Z,7.28
2022-11-26T12:14:02.892Z,7.03
2022-11-26T12:16:36.399Z,6.65
2022-11-26T12:19:22.472Z,7.18
2022-11-26T12:21:56.908Z,7.05
2022-11-26T12:24:36.916Z,7.13
2022-11-26T12:27:33.053Z,5.53
2022-11-26T12:30:21.392Z,6.00
2022-11-26T12:33:31.177Z,5.40
2022-11-26T12:36:05.693Z,5.05
2022-11-26T12:38:40.865Z,5.28
2022-11-26T12:41:20.520Z,5.57
2022-11-26T12:44:04.416Z,5.32
2022-11-26T12:47:14.959Z,5.65
2022-11-26T12:50:11.686Z,5.43
2022-11-26T12:52:52.708Z,4.85
2022-11-26T12:55:31.851Z,5.05
2022-11-26T12:58:19.786Z,5.00
2022-11-26T13:00:49.700Z,5.03
2022-11-26T13:03:22.055Z,5.53
2022-11-26T13:06:22.183Z,4.97
2022-11-26T13:09:16.871Z,5.63
2022-11-26T13:12:18.222Z,5.60
2022-11-26T13:15:05.402Z,4.60
2022-11-26T13:17:45.717Z,5.00
2022-11-26T13:20:48.453Z,5.20
2022-11-26T13:23:43.106Z,5.55
2022-11-26T13:26:27.302Z,4.82
2022-11-26T13:29:17.313Z,4.28
2022-11-26T13:32:07.169Z,5.03
2022-11-26T13:34:52.947Z,4.68
2022-11-26T13:37:45.633Z,4.85
2022-11-26T13:40:33.209Z,4.57
2022-11-26T13:43:27.643Z,4.93
2022-11-26T13:46:22.055Z,4.95
2022-11-26T13:49:00.686Z,5.38
2022-11-26T13:51:39.406Z,4.90
2022-11-26T13:54:17.083Z,4.93
2022-11-26T13:56:47.290Z,5.72
2022-11-26T13:59:23.985Z,5.25
2022-11-26T14:01:55.608Z,5.97
2022-11-26T14:04:23.759Z,5.50
2022-11-26T14:07:07.460Z,5.05
2022-11-26T14:09:47.307Z,5.47
2022-11-26T14:12:19.447Z,5.80
2022-11-26T14:14:53.561Z,6.20
2022-11-26T14:17:24.801Z,5.10
2022-11-26T14:19:56.940Z,5.78
2022-11-26T14:22:30.061Z,5.72
2022-11-26T14:25:05.096Z,6.10
2022-11-26T14:27:36.257Z,5.93
2022-11-26T14:30:19.171Z,5.95
2022-11-26T14:32:58.204Z,5.30
2022-11-26T14:35:34.582Z,5.75
2022-11-26T14:38:05.405Z,4.88
2022-11-26T14:40:38.842Z,5.47
2022-11-26T14:43:15.469Z,5.70
2022-11-26T14:46:05.848Z,6.25
2022-11-26T14:48:37.650Z,5.40
2022-11-26T14:51:08.875Z,5.28
2022-11-26T14:53:42.109Z,4.95
2022-11-26T14:56:11.579Z,5.00
2022-11-26T14:59:14.149Z,6.32
2022-11-26T15:01:46.338Z,6.90
2022-11-26T15:04:34.511Z,7.13
2022-11-26T15:07:02.738Z,5.93
2022-11-26T15:09:30.785Z,5.03
2022-11-26T15:12:12.002Z,5.63
2022-11-26T15:14:44.752Z,5.10
2022-11-26T15:17:16.856Z,4.80
2022-11-26T15:19:45.524Z,4.75
2022-11-26T15:22:39.229Z,5.03
2022-11-26T15:25:16.463Z,4.80
2022-11-26T15:28:16.202Z,4.60
2022-11-26T15:31:01.520Z,4.25
2022-11-26T15:33:31.829Z,5.10
2022-11-26T15:36:00.370Z,5.10
2022-11-26T15:38:31.090Z,5.05
2022-11-26T15:41:06.559Z,4.95
2022-11-26T15:43:42.284Z,4.70
2022-11-26T15:46:25.531Z,4.78
2022-11-26T15:48:55.880Z,6.20
2022-11-26T15:51:41.318Z,5.43
2022-11-26T15:54:38.440Z,5.80
2022-11-26T15:57:32.867Z,5.53
2022-11-26T16:00:08.511Z,4.60
2022-11-26T16:02:39.588Z,4.95
2022-11-26T16:05:24.926Z,5.07
2022-11-26T16:08:01.390Z,4.90
2022-11-26T16:10:35.221Z,5.60
2022-11-26T16:13:15.070Z,5.10
2022-11-26T16:16:11.824Z,5.68
2022-11-26T16:18:48.285Z,5.63
2022-11-26T16:21:25.443Z,5.53
2022-11-26T16:24:05.542Z,5.75
2022-11-26T16:27:02.366Z,5.85
2022-11-26T16:29:31.666Z,6.45
2022-11-26T16:32:00.083Z,5.68
2022-11-26T16:34:28.418Z,5.88
2022-11-26T16:37:16.709Z,6.65
2022-11-26T16:39:45.230Z,5.68
2022-11-26T16:42:22.317Z,5.70
2022-11-26T16:44:50.923Z,5.75
2022-11-26T16:47:34.594Z,6.18
2022-11-26T16:50:03.224Z,6.20
2022-11-26T16:52:35.510Z,6.50
2022-11-26T16:55:03.684Z,6.25
2022-11-26T16:57:31.937Z,6.22
2022-11-26T17:00:05.650Z,5.90
2022-11-26T17:02:33.740Z,6.95
2022-11-26T17:05:02.563Z,6.32
2022-11-26T17:07:46.487Z,6.45
2022-11-26T17:10:16.898Z,6.40
2022-11-26T17:12:45.258Z,7.03
2022-11-26T17:15:14.274Z,5.75
2022-11-26T17:17:42.480Z,7.20
2022-11-26T17:20:25.397Z,7.28
2022-11-26T17:22:53.908Z,6.70
2022-11-26T17:25:22.007Z,6.40
2022-11-26T17:27:50.515Z,6.95
2022-11-26T17:30:23.079Z,7.53
2022-11-26T17:32:52.135Z,8.32
2022-11-26T17:35:20.318Z,8.57
2022-11-26T17:37:48.605Z,7.45
2022-11-26T17:40:19.840Z,7.13
2022-11-26T17:42:48.458Z,8.18
2022-11-26T17:45:17.557Z,7.43
2022-11-26T17:47:46.194Z,8.43
2022-11-26T17:50:21.747Z,7.95
2022-11-26T17:52:50.222Z,7.00
2022-11-26T17:55:19.427Z,6.93
2022-11-26T17:57:47.354Z,6.43
2022-11-26T18:00:19.825Z,7.38
2022-11-26T18:02:48.284Z,7.80
2022-11-26T18:05:16.647Z,8.10
2022-11-26T18:07:44.735Z,8.32
2022-11-26T18:10:15.753Z,7.70
2022-11-26T18:12:44.783Z,7.85
2022-11-26T18:15:21.834Z,8.25
2022-11-26T18:17:55.223Z,7.32
2022-11-26T18:20:25.878Z,7.78
2022-11-26T18:22:57.868Z,7.25
2022-11-26T18:25:27.103Z,7.78
2022-11-26T18:27:58.491Z,6.45
2022-11-26T18:30:27.009Z,7.03
2022-11-26T18:32:55.053Z,6.80
2022-11-26T18:35:23.060Z,6.20
2022-11-26T18:37:51.491Z,5.93
2022-11-26T18:40:19.675Z,6.85
2022-11-26T18:42:52.946Z,6.53
2022-11-26T18:45:21.227Z,6.22
2022-11-26T18:47:49.498Z,6.03
2022-11-26T18:50:20.770Z,5.78
2022-11-26T18:52:48.892Z,5.95
2022-11-26T18:55:16.893Z,5.97
2022-11-26T18:57:47.714Z,7.30
2022-11-26T19:00:16.104Z,6.10
2022-11-26T19:02:44.184Z,5.93
2022-11-26T19:05:12.357Z,6.53
2022-11-26T19:07:40.471Z,5.97
2022-11-26T19:10:09.008Z,7.05
2022-11-26T19:12:37.001Z,16.35
2022-11-26T19:15:05.897Z,9.10
2022-11-26T19:17:33.905Z,7.80
2022-11-26T19:20:01.914Z,7.15
2022-11-26T19:22:29.978Z,8.13
2022-11-26T19:24:57.912Z,16.27
2022-11-26T19:27:26.087Z,9.10
2022-11-26T19:29:54.156Z,9.15
2022-11-26T19:32:22.351Z,6.20
2022-11-26T19:34:50.729Z,6.28
2022-11-26T19:37:18.766Z,5.97
2022-11-26T19:39:46.717Z,6.32
2022-11-26T19:42:14.619Z,6.97
2022-11-26T19:44:42.788Z,6.05
2022-11-26T19:47:10.751Z,6.32
2022-11-26T19:49:39.183Z,6.72
2022-11-26T19:52:07.602Z,6.95
2022-11-26T19:54:35.693Z,6.22
2022-11-26T19:57:03.819Z,6.43
2022-11-26T19:59:32.127Z,7.18
2022-11-26T20:02:00.243Z,6.78
2022-11-26T20:04:29.661Z,7.88
2022-11-26T20:06:58.672Z,7.80
2022-11-26T20:09:26.568Z,7.32
2022-11-26T20:11:54.848Z,9.00
2022-11-26T20:14:22.765Z,7.35
2022-11-26T20:16:50.855Z,6.63
2022-11-26T20:19:19.285Z,8.02
2022-11-26T20:21:50.492Z,6.18
2022-11-26T20:24:18.773Z,7.13
2022-11-26T20:26:48.636Z,7.18
2022-11-26T20:29:17.253Z,5.65
2022-11-26T20:31:47.388Z,6.45
2022-11-26T20:34:17.590Z,6.10
2022-11-26T20:36:45.652Z,5.28
2022-11-26T20:39:16.369Z,5.95
2022-11-26T20:41:45.435Z,5.75
2022-11-26T20:44:14.174Z,6.18
2022-11-26T20:46:42.710Z,5.78
2022-11-26T20:49:11.629Z,6.53
2022-11-26T20:51:39.927Z,6.50
2022-11-26T20:54:08.602Z,6.20
2022-11-26T20:56:37.029Z,5.30
2022-11-26T20:59:04.987Z,5.78
2022-11-26T21:01:33.241Z,5.93
2022-11-26T21:04:02.039Z,6.13
2022-11-26T21:06:41.520Z,6.18
2022-11-26T21:09:19.416Z,5.93
2022-11-26T21:11:47.423Z,6.47
2022-11-26T21:14:15.501Z,6.15
2022-11-26T21:16:48.857Z,7.38
2022-11-26T21:19:17.138Z,5.95
2022-11-26T21:21:45.142Z,6.30
2022-11-26T21:24:17.079Z,5.68
2022-11-26T21:26:45.230Z,5.90
2022-11-26T21:29:13.599Z,7.47
2022-11-26T21:31:41.601Z,6.03
2022-11-26T21:34:12.209Z,5.97
2022-11-26T21:36:42.351Z,5.05
2022-11-26T21:39:16.028Z,5.40
2022-11-26T21:41:44.180Z,5.15
2022-11-26T21:44:12.449Z,5.60
2022-11-26T21:46:40.580Z,5.80
2022-11-26T21:49:09.900Z,4.18
2022-11-26T21:51:37.803Z,4.50
2022-11-26T21:54:06.023Z,5.57
2022-11-26T21:56:34.539Z,4.70
2022-11-26T21:59:03.142Z,6.00
2022-11-26T22:01:36.518Z,5.10
2022-11-26T22:04:12.261Z,4.80
2022-11-26T22:06:40.959Z,5.57
2022-11-26T22:09:09.713Z,5.32
2022-11-26T22:11:40.912Z,6.25
2022-11-26T22:14:12.769Z,5.15
2022-11-26T22:16:40.898Z,5.20
2022-11-26T22:19:11.189Z,3.03
2022-11-26T22:21:41.837Z,5.30
2022-11-26T22:24:17.458Z,4.82
2022-11-26T22:26:46.027Z,4.68
2022-11-26T22:29:18.575Z,5.72
2022-11-26T22:31:48.613Z,4.68
2022-11-26T22:34:18.826Z,5.70
2022-11-26T22:36:47.016Z,5.65
2022-11-26T22:39:17.026Z,5.05
2022-11-26T22:41:46.575Z,4.88
2022-11-26T22:44:15.717Z,5.75
2022-11-26T22:46:44.751Z,4.95
2022-11-26T22:49:15.591Z,5.82
2022-11-26T22:51:43.746Z,5.85
2022-11-26T22:54:14.802Z,6.13
2022-11-26T22:56:42.692Z,6.35
2022-11-26T22:59:14.003Z,5.85
2022-11-26T23:01:42.685Z,5.28
2022-11-26T23:04:11.682Z,5.15
2022-11-26T23:06:40.209Z,3.97
2022-11-26T23:09:09.984Z,4.80
2022-11-26T23:11:40.816Z,4.63
2022-11-26T23:14:09.525Z,6.00
2022-11-26T23:16:38.993Z,5.25
2022-11-26T23:19:07.504Z,5.68
2022-11-26T23:21:40.369Z,4.75
2022-11-26T23:24:09.252Z,5.18
2022-11-26T23:26:38.762Z,4.88
2022-11-26T23:29:07.451Z,5.47
2022-11-26T23:31:38.723Z,4.65
2022-11-26T23:34:07.672Z,4.40
2022-11-26T23:36:36.376Z,5.30
2022-11-26T23:39:06.311Z,4.53
2022-11-26T23:41:34.596Z,4.13
2022-11-26T23:44:03.377Z,3.45
2022-11-26T23:46:32.749Z,4.00
2022-11-26T23:49:00.722Z,4.82
2022-11-26T23:51:30.748Z,4.22
2022-11-26T23:53:59.212Z,4.82
2022-11-26T23:56:29.894Z,4.28
2022-11-26T23:59:01.820Z,4.72
